Time;durP1;ratioP1;P1;durP2;ratioP2;P2;SDS_P1;SDS_P2;PMS_P1;PMS_P2;Temp;Humidity;BMP_temperature;BMP_pressure;BME280_temperature;BME280_humidity;BME280_pressure;Samples;Min_cycle;Max_cycle;Signal;HPM_P1;HPM_P2
2022/03/10 00:01:21;;;;;;;22.38;7.45;;;;;;;;;;4949318;28;20380;-62
2022/03/10 00:03:46;;;;;;;25.33;7.57;;;;;;;;;;4949401;28;20467;-63
2022/03/10 00:06:11;;;;;;;24.00;7.70;;;;;;;;;;4949228;28;20034;-62
2022/03/10 00:08:37;;;;;;;22.05;7.97;;;;;;;;;;4948844;28;20471;-62
2022/03/10 00:11:02;;;;;;;26.38;8.13;;;;;;;;;;4948817;28;20049;-63
2022/03/10 00:13:30;;;;;;;20.75;7.72;;;;;;;;;;4948544;28;20426;-63
2022/03/10 00:15:56;;;;;;;23.83;7.35;;;;;;;;;;4948444;28;20085;-62
2022/03/10 00:18:21;;;;;;;24.02;8.35;;;;;;;;;;4951084;28;20030;-64
2022/03/10 00:20:46;;;;;;;17.67;7.05;;;;;;;;;;4953451;28;20568;-63
2022/03/10 00:23:12;;;;;;;20.95;7.25;;;;;;;;;;4953662;28;20388;-63
2022/03/10 00:25:37;;;;;;;21.35;7.03;;;;;;;;;;4952054;28;20065;-63
2022/03/10 00:28:03;;;;;;;15.73;6.28;;;;;;;;;;4953169;28;20449;-62
2022/03/10 00:30:28;;;;;;;24.65;7.93;;;;;;;;;;4953037;28;20298;-63
2022/03/10 00:32:54;;;;;;;18.50;7.18;;;;;;;;;;4952715;28;20448;-62
2022/03/10 00:35:21;;;;;;;21.80;6.72;;;;;;;;;;4952062;28;20384;-62
2022/03/10 00:37:47;;;;;;;20.30;9.00;;;;;;;;;;4952438;28;20515;-63
2022/03/10 00:40:13;;;;;;;17.65;7.25;;;;;;;;;;4952272;28;20317;-63
2022/03/10 00:42:40;;;;;;;17.58;6.50;;;;;;;;;;4951726;28;20057;-63
2022/03/10 00:45:06;;;;;;;17.10;7.22;;;;;;;;;;4951581;28;20113;-63
2022/03/10 00:47:32;;;;;;;20.25;7.10;;;;;;;;;;4951983;28;20053;-63
2022/03/10 00:49:58;;;;;;;15.75;6.07;;;;;;;;;;4951753;28;20345;-63
2022/03/10 00:52:23;;;;;;;18.23;6.80;;;;;;;;;;4951909;28;20334;-63
2022/03/10 00:54:48;;;;;;;13.73;6.18;;;;;;;;;;4951748;28;20435;-63
2022/03/10 00:57:14;;;;;;;16.52;6.43;;;;;;;;;;4951945;28;20437;-63
2022/03/10 00:59:39;;;;;;;15.40;5.63;;;;;;;;;;4951379;28;20381;-63
2022/03/10 01:02:04;;;;;;;14.95;6.53;;;;;;;;;;4957683;28;20385;-63
2022/03/10 01:04:30;;;;;;;17.58;6.45;;;;;;;;;;4971075;28;20025;-62
2022/03/10 01:06:56;;;;;;;20.20;7.40;;;;;;;;;;4972488;28;20452;-62
2022/03/10 01:09:21;;;;;;;19.40;6.72;;;;;;;;;;4970884;28;20449;-63
2022/03/10 01:11:47;;;;;;;15.00;5.90;;;;;;;;;;4971181;28;20472;-64
2022/03/10 01:14:12;;;;;;;17.73;6.60;;;;;;;;;;4971876;28;20575;-63
2022/03/10 01:16:38;;;;;;;17.35;6.63;;;;;;;;;;4972136;28;20025;-63
2022/03/10 01:19:03;;;;;;;15.15;6.75;;;;;;;;;;4953169;28;20443;-63
2022/03/10 01:21:29;;;;;;;14.50;6.18;;;;;;;;;;4971408;28;20467;-62
2022/03/10 01:23:54;;;;;;;15.40;6.07;;;;;;;;;;4971503;28;20026;-63
2022/03/10 01:26:19;;;;;;;13.70;5.53;;;;;;;;;;4971471;28;20375;-62
2022/03/10 01:28:45;;;;;;;11.82;5.00;;;;;;;;;;4969875;28;20399;-62
2022/03/10 01:31:10;;;;;;;15.32;5.75;;;;;;;;;;4971068;28;20470;-62
2022/03/10 01:33:35;;;;;;;14.20;6.82;;;;;;;;;;4970707;28;20368;-63
2022/03/10 01:36:01;;;;;;;14.32;5.45;;;;;;;;;;4970707;28;20504;-62
2022/03/10 01:38:26;;;;;;;17.17;5.53;;;;;;;;;;4971225;28;20463;-62
2022/03/10 01:40:52;;;;;;;11.65;5.47;;;;;;;;;;4952607;28;20344;-63
2022/03/10 01:43:17;;;;;;;10.27;5.05;;;;;;;;;;4969699;28;20429;-62
2022/03/10 01:45:42;;;;;;;12.70;5.50;;;;;;;;;;4971347;28;20091;-62
2022/03/10 01:48:08;;;;;;;14.35;6.20;;;;;;;;;;4970060;28;20447;-63
2022/03/10 01:50:33;;;;;;;13.70;5.13;;;;;;;;;;4970675;28;20492;-62
2022/03/10 01:53:00;;;;;;;10.98;5.38;;;;;;;;;;4969977;28;20469;-62
2022/03/10 01:55:26;;;;;;;9.63;4.53;;;;;;;;;;4969960;28;20087;-63
2022/03/10 01:57:52;;;;;;;14.70;5.47;;;;;;;;;;4970280;28;20029;-62
2022/03/10 02:00:17;;;;;;;10.70;4.93;;;;;;;;;;4970438;28;20337;-63
2022/03/10 02:02:42;;;;;;;13.77;5.70;;;;;;;;;;4969898;28;20452;-63
2022/03/10 02:05:08;;;;;;;14.75;4.60;;;;;;;;;;4970069;28;20404;-62
2022/03/10 02:10:17;;;;;;;12.30;5.28;;;;;;;;;;4955755;28;20396;-62
2022/03/10 02:12:44;;;;;;;15.27;5.00;;;;;;;;;;4970180;28;20029;-63
2022/03/10 02:17:55;;;;;;;11.23;4.80;;;;;;;;;;4971707;28;20439;-62
2022/03/10 02:20:20;;;;;;;9.23;4.32;;;;;;;;;;4969509;28;20413;-63
2022/03/10 02:22:46;;;;;;;11.00;5.65;;;;;;;;;;4970725;28;20025;-63
2022/03/10 02:25:13;;;;;;;10.93;5.20;;;;;;;;;;4969481;28;20345;-62
2022/03/10 02:27:38;;;;;;;11.45;4.88;;;;;;;;;;4952205;28;20436;-63
2022/03/10 02:30:04;;;;;;;13.43;5.20;;;;;;;;;;4969546;28;20439;-62
2022/03/10 02:32:29;;;;;;;9.57;5.03;;;;;;;;;;4969259;28;20487;-62
2022/03/10 02:34:55;;;;;;;9.48;4.75;;;;;;;;;;4969793;28;20486;-63
2022/03/10 02:37:21;;;;;;;15.48;4.45;;;;;;;;;;4969850;28;20108;-62
2022/03/10 02:39:47;;;;;;;8.63;4.30;;;;;;;;;;4969037;28;20543;-62
2022/03/10 02:42:13;;;;;;;9.48;4.80;;;;;;;;;;4970919;28;20412;-62
2022/03/10 02:44:43;;;;;;;8.68;4.25;;;;;;;;;;4969305;28;20049;-62
2022/03/10 02:47:08;;;;;;;9.82;4.55;;;;;;;;;;4969528;28;20080;-62
2022/03/10 02:49:34;;;;;;;10.00;4.40;;;;;;;;;;4970029;28;20034;-63
2022/03/10 02:52:01;;;;;;;10.15;4.22;;;;;;;;;;4968954;28;20060;-63
2022/03/10 02:54:27;;;;;;;12.32;4.65;;;;;;;;;;4969742;28;20360;-62
2022/03/10 02:56:52;;;;;;;13.75;4.53;;;;;;;;;;4969261;28;20364;-63
2022/03/10 02:59:17;;;;;;;9.20;4.32;;;;;;;;;;4968922;28;20417;-62
2022/03/10 03:01:43;;;;;;;11.02;4.50;;;;;;;;;;4951686;28;20432;-63
2022/03/10 03:04:08;;;;;;;9.90;3.85;;;;;;;;;;4968792;28;20485;-62
2022/03/10 03:06:33;;;;;;;10.75;4.28;;;;;;;;;;4969108;28;20417;-63
2022/03/10 03:08:59;;;;;;;9.85;4.25;;;;;;;;;;4969433;28;20445;-63
2022/03/10 03:11:24;;;;;;;8.05;3.63;;;;;;;;;;4951563;28;20380;-62
2022/03/10 03:13:49;;;;;;;9.25;4.13;;;;;;;;;;4969477;28;20421;-62
2022/03/10 03:16:15;;;;;;;10.75;4.40;;;;;;;;;;4969137;28;20417;-62
2022/03/10 03:18:40;;;;;;;10.80;4.88;;;;;;;;;;4969183;28;20511;-62
2022/03/10 03:21:05;;;;;;;8.98;4.35;;;;;;;;;;4970354;28;20361;-62
2022/03/10 03:23:31;;;;;;;9.32;4.32;;;;;;;;;;4969811;28;20332;-63
2022/03/10 03:25:56;;;;;;;8.40;4.05;;;;;;;;;;4968897;28;20380;-63
2022/03/10 03:28:21;;;;;;;9.75;4.18;;;;;;;;;;4969461;28;20365;-62
2022/03/10 03:30:47;;;;;;;8.38;3.85;;;;;;;;;;4969749;28;20371;-62
2022/03/10 03:33:13;;;;;;;9.80;3.60;;;;;;;;;;4968636;28;20452;-62
2022/03/10 03:35:38;;;;;;;12.38;3.97;;;;;;;;;;4969526;28;20418;-63
2022/03/10 03:38:04;;;;;;;7.32;4.18;;;;;;;;;;4968859;28;20420;-62
2022/03/10 03:40:29;;;;;;;7.53;4.45;;;;;;;;;;4969305;28;20396;-63
2022/03/10 03:42:54;;;;;;;11.23;3.72;;;;;;;;;;4969710;28;20415;-62
2022/03/10 03:45:20;;;;;;;7.93;3.53;;;;;;;;;;4969698;28;20461;-63
2022/03/10 03:47:45;;;;;;;7.15;3.55;;;;;;;;;;4968721;28;20451;-62
2022/03/10 03:50:11;;;;;;;10.57;4.20;;;;;;;;;;4970533;28;20529;-62
2022/03/10 03:52:37;;;;;;;10.82;3.75;;;;;;;;;;4971334;28;20029;-62
2022/03/10 03:55:02;;;;;;;9.98;3.05;;;;;;;;;;4955083;28;20479;-62
2022/03/10 03:57:27;;;;;;;5.18;3.10;;;;;;;;;;4973158;28;20384;-62
2022/03/10 03:59:53;;;;;;;10.43;3.85;;;;;;;;;;4973697;28;20340;-62
2022/03/10 04:02:18;;;;;;;6.68;3.22;;;;;;;;;;4972295;28;20437;-64
2022/03/10 04:04:43;;;;;;;6.03;3.40;;;;;;;;;;4972299;28;20408;-62
2022/03/10 04:07:09;;;;;;;6.13;3.17;;;;;;;;;;4971982;28;20431;-63
2022/03/10 04:09:34;;;;;;;6.28;3.17;;;;;;;;;;4973784;28;20438;-63
2022/03/10 04:12:01;;;;;;;7.22;3.40;;;;;;;;;;4972751;28;20371;-62
2022/03/10 04:14:26;;;;;;;5.90;2.85;;;;;;;;;;4972606;28;20468;-63
2022/03/10 04:16:51;;;;;;;5.88;3.30;;;;;;;;;;4971978;28;20490;-63
2022/03/10 04:19:17;;;;;;;7.38;3.30;;;;;;;;;;4972398;28;20407;-62
2022/03/10 04:21:43;;;;;;;4.78;3.22;;;;;;;;;;4972293;28;20495;-62
2022/03/10 04:24:09;;;;;;;9.82;3.53;;;;;;;;;;4971545;28;20355;-63
2022/03/10 04:26:34;;;;;;;5.43;2.92;;;;;;;;;;4973138;28;20441;-62
2022/03/10 04:28:59;;;;;;;5.97;3.40;;;;;;;;;;4972772;28;20329;-62
2022/03/10 04:31:24;;;;;;;5.68;2.95;;;;;;;;;;4971936;28;20468;-62
2022/03/10 04:33:50;;;;;;;6.30;3.47;;;;;;;;;;4971984;28;20413;-62
2022/03/10 04:36:15;;;;;;;5.75;3.25;;;;;;;;;;4971724;28;20432;-62
2022/03/10 04:38:40;;;;;;;6.13;2.90;;;;;;;;;;4971794;28;20555;-62
2022/03/10 04:41:06;;;;;;;5.72;3.00;;;;;;;;;;4971848;28;20420;-62
2022/03/10 04:43:31;;;;;;;5.60;2.97;;;;;;;;;;4971353;28;20468;-62
2022/03/10 04:45:59;;;;;;;6.32;3.28;;;;;;;;;;4972490;28;20468;-62
2022/03/10 04:48:25;;;;;;;6.25;2.70;;;;;;;;;;4971402;28;20437;-62
2022/03/10 04:50:50;;;;;;;7.18;3.83;;;;;;;;;;4971265;28;20324;-62
2022/03/10 04:53:16;;;;;;;9.77;3.55;;;;;;;;;;4971479;28;20448;-64
2022/03/10 04:55:41;;;;;;;5.22;3.22;;;;;;;;;;4971573;28;20464;-63
2022/03/10 04:58:08;;;;;;;4.85;2.80;;;;;;;;;;4953479;28;20357;-63
2022/03/10 05:00:34;;;;;;;6.60;2.50;;;;;;;;;;4971379;28;20452;-62
2022/03/10 05:02:59;;;;;;;7.38;2.97;;;;;;;;;;4972111;28;20397;-62
2022/03/10 05:05:25;;;;;;;7.38;3.83;;;;;;;;;;4971052;28;20348;-63
2022/03/10 05:07:50;;;;;;;8.40;3.40;;;;;;;;;;4971001;28;20360;-63
2022/03/10 05:10:16;;;;;;;6.32;2.83;;;;;;;;;;4970781;28;20030;-63
2022/03/10 05:12:50;;;;;;;6.65;3.13;;;;;;;;;;4971210;28;20112;-63
2022/03/10 05:15:19;;;;;;;6.95;3.20;;;;;;;;;;4970756;28;20330;-62
2022/03/10 05:17:45;;;;;;;4.80;2.75;;;;;;;;;;4971623;28;20390;-62
2022/03/10 05:20:10;;;;;;;5.50;3.35;;;;;;;;;;4970632;28;20498;-62
2022/03/10 05:22:43;;;;;;;5.30;2.95;;;;;;;;;;4971496;28;20108;-62
2022/03/10 05:25:09;;;;;;;5.75;3.08;;;;;;;;;;4971158;28;20037;-63
2022/03/10 05:27:34;;;;;;;6.05;3.05;;;;;;;;;;4972247;28;20443;-63
2022/03/10 05:29:59;;;;;;;7.35;3.25;;;;;;;;;;4970856;28;20401;-62
2022/03/10 05:32:25;;;;;;;7.47;3.13;;;;;;;;;;4971728;28;20386;-62
2022/03/10 05:34:50;;;;;;;5.97;3.00;;;;;;;;;;4970314;28;20446;-62
2022/03/10 05:37:15;;;;;;;5.50;2.85;;;;;;;;;;4970342;28;20344;-62
2022/03/10 05:39:41;;;;;;;6.13;3.22;;;;;;;;;;4970516;28;20048;-63
2022/03/10 05:42:06;;;;;;;7.07;3.20;;;;;;;;;;4971380;28;20336;-62
2022/03/10 05:44:31;;;;;;;7.75;3.75;;;;;;;;;;4969944;28;20415;-62
2022/03/10 05:46:57;;;;;;;6.30;3.60;;;;;;;;;;4970078;28;20377;-62
2022/03/10 05:49:22;;;;;;;7.00;3.47;;;;;;;;;;4968324;28;20113;-62
2022/03/10 05:51:47;;;;;;;7.82;3.35;;;;;;;;;;4990155;28;20478;-63
2022/03/10 05:54:13;;;;;;;8.98;4.00;;;;;;;;;;4991392;28;20444;-62
2022/03/10 05:56:38;;;;;;;4.32;3.00;;;;;;;;;;4990338;28;20302;-63
2022/03/10 05:59:04;;;;;;;6.15;3.47;;;;;;;;;;4990353;28;20367;-63
2022/03/10 06:01:29;;;;;;;6.20;3.30;;;;;;;;;;4990463;28;20400;-62
2022/03/10 06:03:54;;;;;;;7.72;3.45;;;;;;;;;;4989847;28;20390;-62
2022/03/10 06:06:19;;;;;;;7.68;3.95;;;;;;;;;;4990167;28;20090;-62
2022/03/10 06:08:45;;;;;;;7.93;3.50;;;;;;;;;;4989551;28;20433;-63
2022/03/10 06:11:10;;;;;;;6.32;3.55;;;;;;;;;;4989582;28;20420;-62
2022/03/10 06:13:36;;;;;;;8.20;4.03;;;;;;;;;;4989287;28;20459;-63
2022/03/10 06:16:03;;;;;;;7.55;3.97;;;;;;;;;;4988899;28;20521;-62
2022/03/10 06:18:29;;;;;;;7.03;3.50;;;;;;;;;;4989937;28;20312;-62
2022/03/10 06:20:55;;;;;;;7.63;3.60;;;;;;;;;;4989409;28;20364;-62
2022/03/10 06:23:20;;;;;;;9.20;3.67;;;;;;;;;;4989297;28;20024;-63
2022/03/10 06:25:45;;;;;;;7.57;3.60;;;;;;;;;;4989068;28;20025;-62
2022/03/10 06:28:11;;;;;;;7.72;3.97;;;;;;;;;;4989083;28;20368;-62
2022/03/10 06:30:36;;;;;;;7.82;3.92;;;;;;;;;;4989451;28;20317;-63
2022/03/10 06:33:02;;;;;;;9.32;4.47;;;;;;;;;;4989327;28;21345;-62
2022/03/10 06:35:28;;;;;;;8.68;4.25;;;;;;;;;;4988886;28;20374;-62
2022/03/10 06:37:53;;;;;;;8.38;4.15;;;;;;;;;;4988888;28;20333;-62
2022/03/10 06:40:19;;;;;;;6.82;4.10;;;;;;;;;;4988832;28;20512;-63
2022/03/10 06:42:44;;;;;;;7.93;4.20;;;;;;;;;;4989210;28;20536;-62
2022/03/10 06:45:10;;;;;;;10.20;3.63;;;;;;;;;;4988349;28;20439;-62
2022/03/10 06:47:35;;;;;;;6.68;3.97;;;;;;;;;;4989862;28;20450;-63
2022/03/10 06:50:00;;;;;;;6.80;3.63;;;;;;;;;;4989087;28;20333;-63
2022/03/10 06:52:30;;;;;;;10.35;4.03;;;;;;;;;;4989569;28;20048;-63
2022/03/10 06:54:56;;;;;;;9.30;3.38;;;;;;;;;;4988652;28;20372;-62
2022/03/10 06:57:21;;;;;;;5.95;3.63;;;;;;;;;;4989296;28;20345;-62
2022/03/10 06:59:46;;;;;;;6.30;3.60;;;;;;;;;;4988802;28;20348;-63
2022/03/10 07:02:12;;;;;;;6.00;3.15;;;;;;;;;;4988898;28;20036;-62
2022/03/10 07:04:37;;;;;;;5.55;3.30;;;;;;;;;;4990762;28;20036;-62
2022/03/10 07:07:04;;;;;;;5.78;3.70;;;;;;;;;;4988755;28;20099;-62
2022/03/10 07:09:29;;;;;;;5.13;3.13;;;;;;;;;;4989931;28;20394;-63
2022/03/10 07:11:54;;;;;;;5.65;3.40;;;;;;;;;;4988413;28;20040;-63
2022/03/10 07:14:20;;;;;;;7.60;3.55;;;;;;;;;;4988685;28;20061;-62
2022/03/10 07:16:45;;;;;;;8.23;4.30;;;;;;;;;;4988648;28;20051;-63
2022/03/10 07:19:10;;;;;;;6.75;3.95;;;;;;;;;;4988754;28;20029;-63
2022/03/10 07:21:37;;;;;;;7.10;3.38;;;;;;;;;;4988989;28;20371;-63
2022/03/10 07:24:04;;;;;;;6.20;2.95;;;;;;;;;;4988553;28;20125;-63
2022/03/10 07:26:29;;;;;;;7.75;3.55;;;;;;;;;;4990305;28;20094;-63
2022/03/10 07:28:59;;;;;;;7.72;3.85;;;;;;;;;;4993463;28;20428;-62
2022/03/10 07:31:24;;;;;;;7.22;3.42;;;;;;;;;;4992336;28;20352;-63
2022/03/10 07:33:49;;;;;;;5.70;3.13;;;;;;;;;;4992765;28;20347;-63
2022/03/10 07:36:15;;;;;;;6.72;3.53;;;;;;;;;;4994024;28;20048;-63
2022/03/10 07:38:40;;;;;;;7.38;3.60;;;;;;;;;;4993350;28;20505;-63
2022/03/10 07:41:06;;;;;;;5.57;3.13;;;;;;;;;;4992194;28;20515;-62
2022/03/10 07:43:32;;;;;;;8.43;3.88;;;;;;;;;;4991681;28;20738;-65
2022/03/10 07:45:57;;;;;;;7.63;3.42;;;;;;;;;;4991668;28;20549;-63
2022/03/10 07:48:22;;;;;;;5.78;3.33;;;;;;;;;;4992498;28;20522;-62
2022/03/10 07:50:48;;;;;;;5.18;2.92;;;;;;;;;;4991837;28;20428;-63
2022/03/10 07:53:13;;;;;;;5.95;2.75;;;;;;;;;;4991962;28;20407;-62
2022/03/10 07:55:38;;;;;;;4.68;2.53;;;;;;;;;;4992350;28;20419;-63
2022/03/10 07:58:04;;;;;;;6.18;3.28;;;;;;;;;;4992128;28;20123;-63
2022/03/10 08:00:31;;;;;;;6.13;3.22;;;;;;;;;;4991987;28;20060;-63
2022/03/10 08:02:56;;;;;;;5.22;2.90;;;;;;;;;;4993008;28;20025;-63
2022/03/10 08:05:22;;;;;;;4.90;2.92;;;;;;;;;;4991343;28;20486;-63
2022/03/10 08:07:47;;;;;;;7.35;3.80;;;;;;;;;;4992067;28;20386;-63
2022/03/10 08:10:12;;;;;;;5.72;2.97;;;;;;;;;;4993348;28;20029;-63
2022/03/10 08:12:38;;;;;;;6.40;2.90;;;;;;;;;;4992272;28;20432;-63
2022/03/10 08:15:05;;;;;;;5.40;2.92;;;;;;;;;;4991801;28;20082;-63
2022/03/10 08:17:31;;;;;;;5.53;2.72;;;;;;;;;;4991815;28;20107;-63
2022/03/10 08:19:56;;;;;;;7.88;4.15;;;;;;;;;;4991547;28;20416;-63
2022/03/10 08:22:22;;;;;;;6.47;3.00;;;;;;;;;;4991984;28;20415;-63
2022/03/10 08:24:47;;;;;;;6.00;2.67;;;;;;;;;;4991892;28;20443;-62
2022/03/10 08:27:15;;;;;;;4.72;2.95;;;;;;;;;;4992561;28;20052;-63
2022/03/10 08:29:41;;;;;;;4.85;2.42;;;;;;;;;;4991493;28;20037;-64
2022/03/10 08:32:07;;;;;;;5.82;2.88;;;;;;;;;;4990987;28;20464;-63
2022/03/10 08:34:32;;;;;;;4.60;2.30;;;;;;;;;;4991398;28;20317;-63
2022/03/10 08:36:58;;;;;;;7.20;2.75;;;;;;;;;;4990771;28;20025;-62
2022/03/10 08:39:23;;;;;;;6.68;2.88;;;;;;;;;;4990088;28;20436;-64
2022/03/10 08:41:49;;;;;;;6.68;3.95;;;;;;;;;;4991579;28;20495;-63
2022/03/10 08:44:15;;;;;;;5.57;2.97;;;;;;;;;;4991055;28;20487;-64
2022/03/10 08:46:40;;;;;;;5.40;2.85;;;;;;;;;;4991986;28;20345;-63
2022/03/10 08:49:06;;;;;;;5.90;2.92;;;;;;;;;;4991357;28;20472;-63
2022/03/10 08:51:31;;;;;;;6.00;2.92;;;;;;;;;;4991149;28;20339;-63
2022/03/10 08:53:57;;;;;;;6.88;3.00;;;;;;;;;;4991235;28;20037;-63
2022/03/10 08:56:22;;;;;;;5.70;2.78;;;;;;;;;;4992118;28;20041;-64
2022/03/10 08:58:47;;;;;;;4.25;2.40;;;;;;;;;;4992471;28;20432;-63
2022/03/10 09:01:13;;;;;;;6.25;2.90;;;;;;;;;;4990950;28;20294;-63
2022/03/10 09:03:38;;;;;;;5.25;2.88;;;;;;;;;;4991778;28;20386;-63
2022/03/10 09:06:04;;;;;;;4.40;2.63;;;;;;;;;;4990768;28;20162;-63
2022/03/10 09:08:29;;;;;;;4.90;2.63;;;;;;;;;;4990915;28;20048;-64
2022/03/10 09:10:54;;;;;;;6.25;2.40;;;;;;;;;;4991980;28;20044;-63
2022/03/10 09:13:20;;;;;;;5.85;2.45;;;;;;;;;;4990846;28;20454;-63
2022/03/10 09:15:46;;;;;;;4.55;2.50;;;;;;;;;;4990529;28;20450;-64
2022/03/10 09:18:13;;;;;;;4.28;2.40;;;;;;;;;;4990528;28;20486;-63
2022/03/10 09:20:38;;;;;;;3.97;2.50;;;;;;;;;;4990687;28;20028;-63
2022/03/10 09:23:03;;;;;;;3.15;2.10;;;;;;;;;;4973842;28;20098;-63
2022/03/10 09:25:29;;;;;;;5.68;2.40;;;;;;;;;;4990893;28;20328;-63
2022/03/10 09:27:54;;;;;;;10.20;2.95;;;;;;;;;;4990227;28;20340;-64
2022/03/10 09:30:20;;;;;;;6.30;2.67;;;;;;;;;;4990340;28;20557;-63
2022/03/10 09:32:45;;;;;;;4.43;2.45;;;;;;;;;;4990732;28;20356;-63
2022/03/10 09:35:12;;;;;;;7.43;2.90;;;;;;;;;;4990546;28;20483;-64
2022/03/10 09:37:38;;;;;;;4.28;2.35;;;;;;;;;;4972235;28;20486;-63
2022/03/10 09:40:05;;;;;;;6.55;2.92;;;;;;;;;;4990045;28;20352;-63
2022/03/10 09:42:32;;;;;;;6.15;2.90;;;;;;;;;;4971860;28;20372;-63
2022/03/10 09:44:59;;;;;;;7.22;2.67;;;;;;;;;;4989599;28;20380;-63
2022/03/10 09:47:25;;;;;;;4.82;2.58;;;;;;;;;;4990387;28;20443;-64
2022/03/10 09:49:52;;;;;;;6.38;2.58;;;;;;;;;;4990009;28;20400;-63
2022/03/10 09:52:18;;;;;;;5.55;2.75;;;;;;;;;;4989774;28;20339;-63
2022/03/10 09:54:43;;;;;;;9.18;2.25;;;;;;;;;;4989989;28;20029;-63
2022/03/10 09:57:09;;;;;;;4.30;2.33;;;;;;;;;;4989605;28;20059;-63
2022/03/10 09:59:46;;;;;;;4.88;3.00;;;;;;;;;;4972043;28;20400;-64
2022/03/10 10:02:12;;;;;;;4.95;2.75;;;;;;;;;;4989647;28;20305;-63
2022/03/10 10:04:39;;;;;;;3.83;2.28;;;;;;;;;;4990119;28;20063;-63
2022/03/10 10:07:07;;;;;;;4.75;2.13;;;;;;;;;;4989374;28;20440;-63
2022/03/10 10:09:51;;;;;;;5.22;2.78;;;;;;;;;;4991026;28;20486;-63
2022/03/10 10:12:17;;;;;;;3.95;2.15;;;;;;;;;;4989619;28;20055;-63
2022/03/10 10:14:44;;;;;;;4.25;2.20;;;;;;;;;;4989523;28;20432;-63
2022/03/10 10:17:11;;;;;;;3.22;2.03;;;;;;;;;;4989735;28;20032;-63
2022/03/10 10:19:38;;;;;;;4.40;2.45;;;;;;;;;;4989984;28;20420;-67
2022/03/10 10:22:19;;;;;;;3.47;2.15;;;;;;;;;;4989357;28;20400;-63
2022/03/10 10:24:52;;;;;;;4.75;2.38;;;;;;;;;;4990038;28;20375;-63
2022/03/10 10:27:19;;;;;;;5.30;2.55;;;;;;;;;;4989373;28;20485;-63
2022/03/10 10:29:52;;;;;;;4.15;2.47;;;;;;;;;;4989658;28;20054;-63
2022/03/10 10:32:48;;;;;;;7.90;2.85;;;;;;;;;;4989767;28;20064;-63
2022/03/10 10:35:20;;;;;;;5.10;2.10;;;;;;;;;;4988447;28;20440;-63
2022/03/10 10:37:50;;;;;;;5.30;2.83;;;;;;;;;;4971560;28;20383;-63
2022/03/10 10:40:24;;;;;;;6.47;2.30;;;;;;;;;;4989445;28;20491;-63
2022/03/10 10:42:50;;;;;;;5.00;2.55;;;;;;;;;;4989150;28;20352;-63
2022/03/10 10:45:36;;;;;;;5.18;2.83;;;;;;;;;;4989039;28;20380;-63
2022/03/10 10:48:09;;;;;;;5.75;2.45;;;;;;;;;;4989081;28;20371;-63
2022/03/10 10:50:39;;;;;;;5.20;2.20;;;;;;;;;;4988902;28;20054;-63
2022/03/10 10:53:05;;;;;;;3.30;2.20;;;;;;;;;;4989091;28;20394;-63
2022/03/10 10:55:41;;;;;;;5.15;3.03;;;;;;;;;;4988851;28;20375;-63
2022/03/10 10:58:13;;;;;;;5.03;2.42;;;;;;;;;;4989164;28;20051;-63
2022/03/10 11:00:47;;;;;;;4.05;2.38;;;;;;;;;;4988070;28;20348;-64
2022/03/10 11:03:36;;;;;;;6.10;2.70;;;;;;;;;;4988902;28;20052;-63
2022/03/10 11:06:01;;;;;;;5.10;2.70;;;;;;;;;;4988725;28;20452;-63
2022/03/10 11:08:28;;;;;;;4.00;2.53;;;;;;;;;;4988874;28;20498;-63
2022/03/10 11:10:54;;;;;;;4.10;2.40;;;;;;;;;;4990464;28;20032;-63
2022/03/10 11:13:19;;;;;;;3.67;2.33;;;;;;;;;;4988531;28;20482;-63
2022/03/10 11:15:45;;;;;;;3.45;2.40;;;;;;;;;;4990271;28;20509;-63
2022/03/10 11:18:12;;;;;;;4.13;2.38;;;;;;;;;;4988798;28;20355;-63
2022/03/10 11:20:50;;;;;;;6.25;2.55;;;;;;;;;;4989104;28;20391;-64
2022/03/10 11:24:13;;;;;;;6.32;2.80;;;;;;;;;;4971283;28;20336;-63
2022/03/10 11:27:06;;;;;;;5.63;3.05;;;;;;;;;;4946337;28;20338;-64
2022/03/10 11:29:32;;;;;;;5.53;2.42;;;;;;;;;;4939903;28;20057;-63
2022/03/10 11:31:58;;;;;;;5.45;3.05;;;;;;;;;;4963409;28;20507;-63
2022/03/10 11:34:46;;;;;;;6.50;2.53;;;;;;;;;;4970138;28;20426;-63
2022/03/10 11:37:12;;;;;;;4.43;2.42;;;;;;;;;;4988674;28;20459;-63
2022/03/10 11:39:54;;;;;;;5.70;2.22;;;;;;;;;;4988832;28;20398;-63
2022/03/10 11:42:30;;;;;;;5.90;2.40;;;;;;;;;;4988698;28;20444;-63
2022/03/10 11:45:08;;;;;;;4.43;2.42;;;;;;;;;;4988546;28;20515;-63
2022/03/10 11:47:34;;;;;;;4.50;2.53;;;;;;;;;;4989264;28;20344;-63
2022/03/10 11:50:25;;;;;;;3.78;2.33;;;;;;;;;;4988964;28;20336;-64
2022/03/10 11:53:04;;;;;;;3.58;2.00;;;;;;;;;;4988660;28;20324;-63
2022/03/10 11:55:41;;;;;;;5.28;2.47;;;;;;;;;;4988499;28;20119;-63
2022/03/10 11:58:10;;;;;;;7.43;3.17;;;;;;;;;;4989404;28;20033;-63
2022/03/10 12:00:41;;;;;;;4.97;2.60;;;;;;;;;;4988519;28;20452;-64
2022/03/10 12:03:10;;;;;;;4.50;2.70;;;;;;;;;;4988189;28;20340;-63
2022/03/10 12:05:58;;;;;;;4.20;2.38;;;;;;;;;;4989065;28;20029;-64
2022/03/10 12:08:29;;;;;;;5.65;2.72;;;;;;;;;;4989754;28;20044;-63
2022/03/10 12:10:55;;;;;;;6.57;2.65;;;;;;;;;;4988256;28;20420;-63
2022/03/10 12:13:33;;;;;;;5.50;2.47;;;;;;;;;;4990313;28;20348;-63
2022/03/10 12:15:59;;;;;;;5.70;2.55;;;;;;;;;;4992357;28;20095;-63
2022/03/10 12:18:29;;;;;;;5.10;2.80;;;;;;;;;;4992525;28;20395;-63
2022/03/10 12:20:56;;;;;;;6.97;3.75;;;;;;;;;;4991632;28;20513;-63
2022/03/10 12:23:23;;;;;;;7.13;3.13;;;;;;;;;;4991579;28;20420;-63
2022/03/10 12:25:57;;;;;;;5.57;2.75;;;;;;;;;;4991447;28;20414;-64
2022/03/10 12:28:31;;;;;;;4.55;2.58;;;;;;;;;;4990930;28;20306;-63
2022/03/10 12:31:18;;;;;;;4.75;2.90;;;;;;;;;;4991256;28;20428;-63
2022/03/10 12:33:47;;;;;;;4.65;2.63;;;;;;;;;;4992600;28;20370;-63
2022/03/10 12:36:15;;;;;;;5.18;2.85;;;;;;;;;;4991275;28;20387;-63
2022/03/10 12:38:46;;;;;;;4.22;2.80;;;;;;;;;;4991314;28;20363;-63
2022/03/10 12:41:14;;;;;;;6.18;2.65;;;;;;;;;;4992313;28;20317;-63
2022/03/10 12:43:39;;;;;;;3.30;2.10;;;;;;;;;;4990893;28;20389;-64
2022/03/10 12:46:05;;;;;;;6.65;2.55;;;;;;;;;;4972124;28;20037;-63
2022/03/10 12:48:45;;;;;;;5.05;2.60;;;;;;;;;;4971481;28;20388;-63
2022/03/10 12:51:21;;;;;;;3.72;2.30;;;;;;;;;;4972925;28;20033;-63
2022/03/10 12:53:46;;;;;;;4.15;2.20;;;;;;;;;;4972138;28;20025;-63
2022/03/10 12:56:12;;;;;;;6.22;2.72;;;;;;;;;;4971338;28;20087;-63
2022/03/10 12:58:37;;;;;;;6.47;2.65;;;;;;;;;;4971376;28;20372;-63
2022/03/10 13:01:07;;;;;;;7.55;3.35;;;;;;;;;;4972579;28;20338;-65
2022/03/10 13:03:37;;;;;;;4.78;2.35;;;;;;;;;;4971513;28;20451;-64
2022/03/10 13:06:07;;;;;;;5.25;2.80;;;;;;;;;;4971152;28;20475;-63
2022/03/10 13:08:33;;;;;;;5.10;2.30;;;;;;;;;;4953746;28;20336;-63
2022/03/10 13:10:59;;;;;;;5.72;3.05;;;;;;;;;;4971639;28;20324;-63
2022/03/10 13:13:31;;;;;;;4.40;2.25;;;;;;;;;;4971285;28;20480;-63
2022/03/10 13:16:06;;;;;;;4.30;2.38;;;;;;;;;;4971413;28;20322;-63
2022/03/10 13:18:39;;;;;;;6.38;2.75;;;;;;;;;;4971759;28;20367;-63
2022/03/10 13:21:08;;;;;;;4.45;2.20;;;;;;;;;;4971060;28;20361;-64
2022/03/10 13:23:34;;;;;;;4.22;2.55;;;;;;;;;;4970249;28;20425;-63
2022/03/10 13:26:00;;;;;;;4.18;1.98;;;;;;;;;;4972403;28;20329;-63
2022/03/10 13:28:25;;;;;;;6.60;2.58;;;;;;;;;;4971701;28;20441;-63
2022/03/10 13:30:51;;;;;;;5.97;2.40;;;;;;;;;;4970946;28;20353;-64
2022/03/10 13:33:17;;;;;;;4.22;2.05;;;;;;;;;;4971239;28;20029;-63
2022/03/10 13:35:46;;;;;;;4.32;2.80;;;;;;;;;;4970574;28;20332;-64
2022/03/10 13:38:22;;;;;;;5.78;4.55;;;;;;;;;;4970560;28;20639;-63
2022/03/10 13:40:48;;;;;;;6.43;4.78;;;;;;;;;;4970744;28;20714;-64
2022/03/10 13:43:26;;;;;;;2.53;1.83;;;;;;;;;;4970383;28;20397;-63
2022/03/10 13:45:51;;;;;;;4.88;2.80;;;;;;;;;;4988059;28;20463;-63
2022/03/10 13:48:22;;;;;;;3.97;1.95;;;;;;;;;;4989957;28;20328;-63
2022/03/10 13:50:49;;;;;;;4.30;2.33;;;;;;;;;;4989622;28;20499;-63
2022/03/10 13:53:15;;;;;;;4.22;2.35;;;;;;;;;;4991117;28;20049;-63
2022/03/10 13:55:43;;;;;;;4.43;2.22;;;;;;;;;;4989951;28;20495;-64
2022/03/10 13:58:09;;;;;;;4.00;2.80;;;;;;;;;;4972699;28;20391;-63
2022/03/10 14:00:40;;;;;;;6.10;2.70;;;;;;;;;;4991265;28;20398;-63
2022/03/10 14:03:08;;;;;;;6.72;2.13;;;;;;;;;;4990687;28;20463;-63
2022/03/10 14:05:51;;;;;;;4.95;3.05;;;;;;;;;;4989746;28;20417;-63
2022/03/10 14:08:20;;;;;;;5.53;3.22;;;;;;;;;;4989316;28;20403;-63
2022/03/10 14:10:46;;;;;;;8.23;3.15;;;;;;;;;;4989524;28;20416;-63
2022/03/10 14:13:12;;;;;;;7.05;2.95;;;;;;;;;;4989273;28;20436;-63
2022/03/10 14:15:40;;;;;;;6.22;3.25;;;;;;;;;;4971726;28;20371;-63
2022/03/10 14:18:07;;;;;;;5.78;2.85;;;;;;;;;;4989469;28;20429;-63
2022/03/10 14:20:46;;;;;;;5.88;3.00;;;;;;;;;;4989749;28;20091;-63
2022/03/10 14:23:19;;;;;;;5.70;3.40;;;;;;;;;;4989650;28;20371;-63
2022/03/10 14:25:45;;;;;;;6.10;3.53;;;;;;;;;;4990932;28;20428;-62
2022/03/10 14:28:12;;;;;;;8.45;2.85;;;;;;;;;;4989824;28;20423;-62
2022/03/10 14:30:38;;;;;;;7.53;4.70;;;;;;;;;;4995137;28;20024;-63
2022/03/10 14:33:05;;;;;;;21.10;6.30;;;;;;;;;;4997021;28;20490;-63
2022/03/10 14:35:32;;;;;;;11.10;5.20;;;;;;;;;;4997398;28;20417;-62
2022/03/10 14:37:57;;;;;;;10.30;4.70;;;;;;;;;;4989732;28;20033;-63
2022/03/10 14:40:22;;;;;;;9.10;3.95;;;;;;;;;;4989001;28;20029;-62
2022/03/10 14:42:48;;;;;;;13.85;4.40;;;;;;;;;;4988549;28;20415;-63
2022/03/10 14:45:13;;;;;;;14.30;2.97;;;;;;;;;;4988605;28;20397;-62
2022/03/10 14:47:38;;;;;;;10.75;3.88;;;;;;;;;;4988859;28;20320;-62